Welty, Oklahoma
Current Conditions -  °F | °C
As of 6:55 AM on Wednesday 26 Nov 2014 (Local Time) from KCQB Reporting Station
Overcast Overcast  
Wind Chill: 39°   Ceiling: 12000
Heat Index: 43°   Visibility: 10mi
Dew Point: 34°   Wind: 7mph
Humidity: 70%   Direction: 330°NNW
Pressure: 30.05"   Gusts: NA
Location:  35.601°N, 96.4288°W
Report Text: KCQB 261255Z AUTO 33006KT 10SM OVC120 06/01 A3005 RMK AO2
Loading
Personal Weather Stations






























Interactive Weather Map New forecast layout! Learn more

10-Day Weather Forecast

Advertisements
Track Severe Weather on mobile